createdAt,value
2022-11-05T00:02:14.194Z,33.40
2022-11-05T00:05:13.348Z,31.87
2022-11-05T00:08:15.437Z,30.53
2022-11-05T00:10:59.378Z,32.17
2022-11-05T00:14:01.045Z,32.50
2022-11-05T00:16:44.996Z,34.60
2022-11-05T00:19:28.908Z,34.73
2022-11-05T00:22:31.577Z,35.37
2022-11-05T00:25:16.866Z,34.80
2022-11-05T00:28:03.247Z,34.90
2022-11-05T00:30:47.249Z,34.67
2022-11-05T00:33:31.345Z,35.80
2022-11-05T00:36:15.328Z,37.97
2022-11-05T00:39:00.812Z,36.47
2022-11-05T00:42:04.667Z,36.50
2022-11-05T00:45:01.075Z,35.53
2022-11-05T00:48:06.396Z,37.60
2022-11-05T00:50:50.409Z,36.13
2022-11-05T00:53:34.502Z,36.00
2022-11-05T00:56:19.921Z,38.90
2022-11-05T00:59:03.935Z,36.73
2022-11-05T01:01:47.972Z,37.83
2022-11-05T01:04:31.978Z,38.20
2022-11-05T01:07:15.897Z,35.97
2022-11-05T01:09:59.835Z,35.60
2022-11-05T01:12:45.362Z,37.77
2022-11-05T01:15:29.348Z,40.07
2022-11-05T01:18:13.382Z,38.30
2022-11-05T01:20:57.302Z,38.27
2022-11-05T01:23:41.371Z,39.20
2022-11-05T01:26:25.502Z,36.53
2022-11-05T01:29:12.773Z,37.60
2022-11-05T01:31:56.681Z,35.53
2022-11-05T01:34:40.716Z,37.63
2022-11-05T01:37:24.705Z,39.83
2022-11-05T01:40:10.443Z,35.97
2022-11-05T01:42:55.676Z,38.20
2022-11-05T01:45:41.056Z,36.50
2022-11-05T01:48:30.284Z,35.77
2022-11-05T01:51:18.035Z,37.53
2022-11-05T01:54:05.631Z,38.33
2022-11-05T01:56:54.218Z,38.23
2022-11-05T01:59:43.235Z,38.63
2022-11-05T02:02:29.050Z,38.70
2022-11-05T02:05:15.112Z,37.87
2022-11-05T02:07:59.463Z,38.87
2022-11-05T02:10:46.144Z,39.80
2022-11-05T02:13:30.072Z,38.80
2022-11-05T02:16:22.167Z,39.67
2022-11-05T02:19:37.986Z,37.10
2022-11-05T02:22:55.058Z,37.67
2022-11-05T02:26:00.840Z,39.43
2022-11-05T02:29:44.744Z,37.40
2022-11-05T02:32:42.448Z,39.23
2022-11-05T02:35:38.771Z,40.53
2022-11-05T02:38:37.516Z,41.43
2022-11-05T02:41:29.985Z,40.13
2022-11-05T02:44:25.210Z,41.73
2022-11-05T02:47:18.278Z,39.93
2022-11-05T02:50:15.029Z,42.57
2022-11-05T02:53:04.165Z,40.53
2022-11-05T02:55:54.278Z,41.23
2022-11-05T02:58:38.267Z,40.17
2022-11-05T03:01:22.348Z,42.03
2022-11-05T03:04:09.649Z,42.93
2022-11-05T03:07:05.571Z,43.07
2022-11-05T03:10:15.071Z,41.83
2022-11-05T03:13:10.475Z,44.17
2022-11-05T03:15:59.955Z,44.67
2022-11-05T03:18:48.852Z,42.23
2022-11-05T03:21:42.674Z,42.80
2022-11-05T03:24:31.648Z,42.57
2022-11-05T03:27:19.865Z,43.47
2022-11-05T03:30:07.716Z,43.37
2022-11-05T03:32:58.212Z,45.83
2022-11-05T03:35:47.422Z,44.93
2022-11-05T03:38:36.226Z,43.80
2022-11-05T03:41:24.045Z,44.70
2022-11-05T03:44:09.830Z,46.13
2022-11-05T03:46:55.637Z,45.07
2022-11-05T03:49:44.563Z,45.53
2022-11-05T03:52:35.042Z,44.87
2022-11-05T03:55:19.530Z,46.03
2022-11-05T03:58:06.945Z,47.00
2022-11-05T04:00:52.644Z,47.33
2022-11-05T04:03:37.336Z,46.20
2022-11-05T04:06:38.704Z,46.83
2022-11-05T04:09:51.644Z,46.27
2022-11-05T04:12:49.542Z,49.90
2022-11-05T04:15:55.463Z,49.27
2022-11-05T04:18:38.424Z,48.27
2022-11-05T04:21:39.914Z,48.50
2022-11-05T04:24:23.869Z,45.90
2022-11-05T04:27:11.463Z,46.40
2022-11-05T04:30:13.079Z,48.90
2022-11-05T04:33:07.210Z,50.47
2022-11-05T04:35:51.369Z,48.13
2022-11-05T04:38:35.952Z,49.00
2022-11-05T04:41:20.000Z,49.80
2022-11-05T04:44:04.093Z,52.77
2022-11-05T04:46:48.004Z,53.50
2022-11-05T04:49:33.532Z,52.50
2022-11-05T04:52:18.062Z,57.23
2022-11-05T04:55:02.214Z,52.60
2022-11-05T04:57:49.614Z,51.27
2022-11-05T05:00:33.764Z,52.30
2022-11-05T05:03:17.636Z,53.43
2022-11-05T05:06:04.163Z,50.10
2022-11-05T05:08:48.837Z,51.33
2022-11-05T05:11:32.782Z,51.60
2022-11-05T05:14:16.734Z,52.80
2022-11-05T05:17:00.762Z,52.07
2022-11-05T05:19:58.541Z,52.33
2022-11-05T05:22:43.882Z,52.67
2022-11-05T05:25:27.900Z,54.47
2022-11-05T05:28:11.983Z,55.47
2022-11-05T05:31:00.760Z,50.83
2022-11-05T05:33:44.967Z,47.37
2022-11-05T05:36:29.175Z,47.23
2022-11-05T05:39:14.762Z,46.53
2022-11-05T05:41:58.687Z,45.00
2022-11-05T05:44:42.759Z,45.03
2022-11-05T05:47:26.706Z,44.47
2022-11-05T05:50:10.698Z,41.97
2022-11-05T05:52:54.982Z,41.67
2022-11-05T05:55:40.411Z,39.87
2022-11-05T05:58:26.790Z,39.37
2022-11-05T06:01:18.577Z,38.23
2022-11-05T06:04:03.727Z,39.83
2022-11-05T06:06:48.429Z,38.97
2022-11-05T06:09:32.481Z,40.67
2022-11-05T06:12:17.918Z,40.60
2022-11-05T06:15:01.901Z,40.93
2022-11-05T06:17:47.894Z,38.87
2022-11-05T06:20:31.893Z,39.90
2022-11-05T06:23:15.739Z,39.67
2022-11-05T06:26:02.148Z,40.73
2022-11-05T06:28:48.164Z,40.57
2022-11-05T06:31:32.163Z,40.50
2022-11-05T06:34:16.150Z,40.37
2022-11-05T06:37:00.861Z,40.40
2022-11-05T06:39:44.943Z,39.73
2022-11-05T06:42:28.969Z,36.87
2022-11-05T06:45:14.431Z,39.13
2022-11-05T06:47:59.131Z,36.97
2022-11-05T06:50:46.429Z,38.43
2022-11-05T06:53:30.526Z,39.67
2022-11-05T06:56:14.558Z,39.27
2022-11-05T06:58:58.426Z,38.03
2022-11-05T07:01:44.084Z,37.90
2022-11-05T07:04:28.104Z,38.30
2022-11-05T07:07:12.431Z,39.78
2022-11-05T07:09:57.649Z,40.28
2022-11-05T07:12:41.692Z,41.83
2022-11-05T07:15:25.827Z,41.17
2022-11-05T07:18:11.365Z,37.10
2022-11-05T07:20:55.415Z,38.67
2022-11-05T07:23:39.421Z,37.08
2022-11-05T07:26:23.413Z,39.10
2022-11-05T07:29:07.386Z,36.63
2022-11-05T07:31:51.288Z,36.08
2022-11-05T07:34:36.594Z,36.88
2022-11-05T07:37:20.870Z,37.50
2022-11-05T07:40:05.458Z,35.08
2022-11-05T07:42:52.010Z,33.45
2022-11-05T07:45:36.026Z,34.13
2022-11-05T07:48:19.956Z,36.00
2022-11-05T07:51:05.434Z,33.70
2022-11-05T07:53:49.601Z,32.90
2022-11-05T07:56:33.702Z,31.67
2022-11-05T07:59:17.719Z,35.70
2022-11-05T08:02:01.816Z,36.28
2022-11-05T08:04:45.863Z,35.95
2022-11-05T08:07:31.364Z,31.30
2022-11-05T08:10:15.337Z,28.30
2022-11-05T08:12:59.316Z,27.30
2022-11-05T08:15:43.559Z,28.42
2022-11-05T08:18:31.456Z,27.58
2022-11-05T08:21:15.461Z,27.20
2022-11-05T08:24:00.774Z,27.70
2022-11-05T08:26:44.748Z,26.95
2022-11-05T08:29:28.716Z,24.55
2022-11-05T08:32:12.604Z,25.90
2022-11-05T08:34:56.557Z,27.00
2022-11-05T08:37:40.677Z,28.30
2022-11-05T08:40:26.300Z,27.15
2022-11-05T08:43:12.927Z,26.83
2022-11-05T08:45:57.322Z,25.02
2022-11-05T08:48:41.238Z,24.10
2022-11-05T08:51:25.093Z,25.58
2022-11-05T08:54:09.134Z,23.77
2022-11-05T08:56:54.542Z,23.50
2022-11-05T08:59:38.504Z,22.15
2022-11-05T09:02:22.409Z,24.83
2022-11-05T09:05:07.015Z,22.77
2022-11-05T09:07:53.152Z,23.45
2022-11-05T09:10:41.347Z,24.15
2022-11-05T09:13:27.230Z,24.50
2022-11-05T09:16:20.211Z,23.13
2022-11-05T09:19:05.284Z,20.58
2022-11-05T09:21:49.450Z,20.35
2022-11-05T09:24:33.428Z,21.17
2022-11-05T09:27:17.456Z,22.85
2022-11-05T09:30:02.979Z,20.52
2022-11-05T09:32:47.539Z,21.00
2022-11-05T09:35:31.615Z,22.15
2022-11-05T09:38:15.886Z,21.50
2022-11-05T09:41:02.767Z,23.02
2022-11-05T09:43:51.582Z,23.27
2022-11-05T09:46:45.131Z,20.33
2022-11-05T09:49:35.528Z,21.48
2022-11-05T09:52:23.173Z,20.45
2022-11-05T09:55:17.655Z,19.05
2022-11-05T09:58:04.458Z,19.63
2022-11-05T10:00:52.782Z,21.08
2022-11-05T10:03:46.084Z,19.85
2022-11-05T10:06:30.821Z,20.73
2022-11-05T10:09:21.527Z,19.33
2022-11-05T10:12:13.513Z,21.60
2022-11-05T10:15:15.746Z,20.73
2022-11-05T10:18:04.398Z,24.20
2022-11-05T10:20:50.174Z,21.33
2022-11-05T10:23:34.704Z,21.08
2022-11-05T10:26:22.103Z,23.45
2022-11-05T10:29:06.442Z,22.27
2022-11-05T10:31:50.842Z,23.70
2022-11-05T10:34:38.398Z,24.60
2022-11-05T10:37:25.925Z,22.00
2022-11-05T10:40:18.419Z,25.35
2022-11-05T10:43:07.307Z,23.10
2022-11-05T10:45:57.876Z,24.20
2022-11-05T10:48:54.485Z,22.75
2022-11-05T10:51:38.807Z,24.60
2022-11-05T10:54:28.004Z,22.48
2022-11-05T10:57:31.071Z,22.85
2022-11-05T11:00:29.277Z,23.17
2022-11-05T11:03:34.318Z,23.58
2022-11-05T11:06:24.681Z,22.15
2022-11-05T11:09:19.345Z,22.42
2022-11-05T11:12:09.037Z,22.83
2022-11-05T11:15:03.040Z,21.40
2022-11-05T11:17:48.806Z,22.60
2022-11-05T11:20:34.027Z,21.95
2022-11-05T11:23:19.003Z,21.08
2022-11-05T11:26:03.916Z,23.25
2022-11-05T11:28:59.466Z,21.98
2022-11-05T11:31:43.953Z,21.60
2022-11-05T11:34:31.772Z,21.90
2022-11-05T11:37:20.191Z,22.23
2022-11-05T11:40:10.170Z,22.35
2022-11-05T11:42:57.929Z,22.40
2022-11-05T11:45:49.540Z,22.98
2022-11-05T11:48:37.549Z,22.83
2022-11-05T11:51:32.155Z,22.20
2022-11-05T11:54:23.853Z,21.45
2022-11-05T11:57:23.294Z,19.45
2022-11-05T12:00:10.398Z,21.15
2022-11-05T12:03:12.716Z,20.48
2022-11-05T12:06:07.624Z,21.60
2022-11-05T12:09:06.510Z,21.23
2022-11-05T12:12:01.756Z,20.73
2022-11-05T12:14:56.452Z,20.15
2022-11-05T12:17:51.231Z,21.35
2022-11-05T12:20:58.484Z,20.42
2022-11-05T12:24:05.163Z,20.02
2022-11-05T12:27:01.449Z,20.40
2022-11-05T12:29:59.102Z,19.50
2022-11-05T12:32:57.354Z,18.23
2022-11-05T12:35:57.795Z,18.13
2022-11-05T12:39:25.260Z,18.10
2022-11-05T12:42:17.847Z,18.88
2022-11-05T12:45:06.255Z,18.73
2022-11-05T12:48:11.171Z,19.05
2022-11-05T12:51:03.817Z,19.10
2022-11-05T12:54:07.704Z,19.15
2022-11-05T12:56:55.113Z,19.52
2022-11-05T13:00:03.914Z,18.70
2022-11-05T13:02:54.279Z,19.10
2022-11-05T13:05:41.437Z,18.95
2022-11-05T13:08:30.113Z,17.38
2022-11-05T13:11:21.623Z,18.33
2022-11-05T13:14:11.616Z,17.90
2022-11-05T13:17:01.697Z,18.13
2022-11-05T13:19:52.170Z,18.05
2022-11-05T13:22:40.164Z,17.27
2022-11-05T13:25:26.853Z,16.13
2022-11-05T13:28:19.300Z,16.10
2022-11-05T13:31:07.917Z,15.88
2022-11-05T13:33:54.604Z,16.65
2022-11-05T13:37:05.961Z,16.75
2022-11-05T13:39:54.678Z,16.10
2022-11-05T13:43:09.280Z,16.52
2022-11-05T13:46:13.613Z,16.92
2022-11-05T13:49:22.332Z,17.20
2022-11-05T13:52:27.404Z,17.92
2022-11-05T13:55:32.721Z,18.00
2022-11-05T13:58:45.657Z,19.85
2022-11-05T14:01:46.354Z,21.00
2022-11-05T14:04:36.527Z,18.60
2022-11-05T14:07:23.514Z,19.50
2022-11-05T14:10:20.804Z,19.45
2022-11-05T14:13:17.539Z,20.05
2022-11-05T14:16:09.268Z,19.83
2022-11-05T14:18:56.559Z,20.50
2022-11-05T14:21:50.946Z,20.67
2022-11-05T14:24:43.691Z,21.08
2022-11-05T14:27:45.078Z,21.13
2022-11-05T14:30:45.181Z,21.90
2022-11-05T14:33:38.896Z,21.80
2022-11-05T14:36:37.723Z,21.42
2022-11-05T14:39:27.641Z,22.30
2022-11-05T14:42:16.852Z,24.20
2022-11-05T14:45:21.425Z,30.70
2022-11-05T14:48:07.880Z,30.95
2022-11-05T14:50:52.361Z,31.98
2022-11-05T14:53:38.636Z,24.23
2022-11-05T14:56:24.245Z,23.05
2022-11-05T14:59:52.091Z,22.27
2022-11-05T15:02:39.708Z,23.35
2022-11-05T15:05:39.688Z,23.00
2022-11-05T15:08:39.008Z,23.42
2022-11-05T15:11:31.571Z,24.33
2022-11-05T15:14:23.337Z,22.95
2022-11-05T15:17:17.092Z,22.75
2022-11-05T15:20:09.720Z,23.65
2022-11-05T15:22:59.694Z,21.45
2022-11-05T15:25:53.251Z,22.67
2022-11-05T15:28:43.029Z,20.35
2022-11-05T15:31:33.818Z,21.55
2022-11-05T15:34:22.004Z,21.02
2022-11-05T15:37:24.844Z,19.02
2022-11-05T15:40:23.126Z,22.70
2022-11-05T15:43:14.905Z,37.13
2022-11-05T15:46:02.398Z,31.47
2022-11-05T15:48:52.986Z,27.23
2022-11-05T15:51:37.079Z,29.43
2022-11-05T15:54:30.220Z,29.07
2022-11-05T15:57:26.662Z,30.97
2022-11-05T16:00:18.749Z,31.57
2022-11-05T16:03:12.595Z,31.43
2022-11-05T16:05:57.160Z,30.87
2022-11-05T16:08:47.244Z,33.00
2022-11-05T16:11:32.887Z,33.83
2022-11-05T16:14:18.744Z,33.17
2022-11-05T16:17:12.591Z,32.67
2022-11-05T16:19:58.245Z,32.10
2022-11-05T16:22:48.081Z,34.17
2022-11-05T16:25:38.593Z,34.77
2022-11-05T16:28:25.263Z,36.07
2022-11-05T16:31:09.279Z,36.30
2022-11-05T16:33:54.136Z,37.53
2022-11-05T16:36:39.644Z,36.67
2022-11-05T16:39:23.911Z,37.60
2022-11-05T16:42:40.571Z,37.00
2022-11-05T16:45:26.423Z,36.43
2022-11-05T16:48:12.627Z,38.30
2022-11-05T16:50:56.931Z,40.67
2022-11-05T16:53:42.352Z,38.17
2022-11-05T16:56:26.602Z,39.80
2022-11-05T16:59:14.123Z,38.70
2022-11-05T17:01:59.594Z,39.53
2022-11-05T17:04:45.167Z,39.67
2022-11-05T17:07:30.937Z,39.07
2022-11-05T17:10:16.946Z,38.23
2022-11-05T17:13:01.230Z,36.80
2022-11-05T17:15:47.033Z,38.10
2022-11-05T17:18:31.669Z,38.63
2022-11-05T17:21:15.938Z,35.80
2022-11-05T17:24:01.745Z,40.00
2022-11-05T17:26:47.583Z,39.37
2022-11-05T17:29:31.744Z,38.43
2022-11-05T17:32:17.038Z,38.73
2022-11-05T17:35:02.460Z,40.20
2022-11-05T17:37:47.020Z,35.70
2022-11-05T17:40:31.181Z,38.97
2022-11-05T17:43:16.952Z,37.87
2022-11-05T17:46:04.542Z,38.77
2022-11-05T17:48:49.314Z,38.30
2022-11-05T17:51:35.039Z,40.97
2022-11-05T17:54:19.331Z,38.90
2022-11-05T17:57:05.865Z,41.07
2022-11-05T17:59:51.832Z,40.50
2022-11-05T18:02:38.614Z,41.67
2022-11-05T18:05:25.226Z,41.67
2022-11-05T18:08:10.476Z,45.50
2022-11-05T18:10:55.369Z,44.27
2022-11-05T18:13:39.808Z,46.67
2022-11-05T18:16:27.234Z,45.87
2022-11-05T18:19:12.010Z,46.13
2022-11-05T18:22:00.030Z,46.70
2022-11-05T18:24:44.250Z,47.60
2022-11-05T18:27:30.701Z,45.93
2022-11-05T18:30:17.587Z,46.70
2022-11-05T18:33:03.356Z,45.50
2022-11-05T18:35:47.994Z,47.20
2022-11-05T18:38:32.173Z,44.33
2022-11-05T18:41:16.899Z,47.03
2022-11-05T18:44:01.763Z,47.93
2022-11-05T18:46:58.009Z,47.37
2022-11-05T18:49:44.190Z,44.73
2022-11-05T18:52:29.653Z,45.63
2022-11-05T18:55:14.139Z,45.83
2022-11-05T18:57:58.298Z,48.30
2022-11-05T19:00:46.310Z,49.00
2022-11-05T19:03:30.551Z,47.43
2022-11-05T19:06:16.336Z,45.13
2022-11-05T19:09:00.352Z,45.23
2022-11-05T19:11:44.675Z,44.87
2022-11-05T19:14:30.354Z,43.40
2022-11-05T19:17:14.761Z,44.63
2022-11-05T19:19:58.752Z,46.30
2022-11-05T19:22:44.326Z,42.67
2022-11-05T19:25:29.931Z,44.73
2022-11-05T19:28:16.836Z,44.73
2022-11-05T19:31:00.965Z,47.33
2022-11-05T19:33:47.874Z,47.63
2022-11-05T19:36:31.947Z,50.87
2022-11-05T19:39:20.368Z,53.17
2022-11-05T19:42:04.794Z,56.37
2022-11-05T19:44:49.093Z,52.70
2022-11-05T19:47:33.095Z,55.93
2022-11-05T19:50:17.539Z,57.33
2022-11-05T19:53:03.349Z,56.77
2022-11-05T19:55:48.858Z,54.80
2022-11-05T19:58:34.852Z,57.57
2022-11-05T20:01:21.539Z,56.13
2022-11-05T20:04:09.495Z,54.87
2022-11-05T20:06:56.534Z,60.60
2022-11-05T20:09:40.580Z,62.83
2022-11-05T20:12:26.197Z,62.63
2022-11-05T20:15:16.469Z,61.57
2022-11-05T20:18:03.711Z,61.67
2022-11-05T20:20:48.184Z,59.13
2022-11-05T20:23:36.406Z,62.47
2022-11-05T20:26:23.506Z,57.07
2022-11-05T20:29:11.696Z,56.20
2022-11-05T20:31:57.317Z,57.90
2022-11-05T20:34:41.761Z,53.40
2022-11-05T20:40:23.841Z,55.40
2022-11-05T20:43:09.570Z,51.03
2022-11-05T20:45:55.006Z,56.03
2022-11-05T20:48:40.789Z,55.73
2022-11-05T20:51:28.726Z,53.13
2022-11-05T20:54:13.001Z,53.83
2022-11-05T20:56:57.192Z,55.40
2022-11-05T20:59:41.348Z,55.30
2022-11-05T21:02:27.028Z,55.97
2022-11-05T21:05:16.835Z,54.43
2022-11-05T21:08:01.274Z,54.53
2022-11-05T21:10:51.001Z,54.87
2022-11-05T21:13:36.445Z,54.23
2022-11-05T21:16:21.314Z,56.77
2022-11-05T21:19:07.046Z,55.27
2022-11-05T21:21:51.484Z,54.60
2022-11-05T21:24:37.794Z,55.53
2022-11-05T21:27:21.779Z,54.10
2022-11-05T21:30:09.967Z,55.03
2022-11-05T21:32:54.188Z,53.17
2022-11-05T21:35:44.087Z,51.50
2022-11-05T21:38:29.485Z,51.37
2022-11-05T21:41:17.481Z,50.77
2022-11-05T21:44:01.479Z,51.00
2022-11-05T21:46:48.209Z,49.30
2022-11-05T21:49:32.438Z,49.07
2022-11-05T21:52:35.732Z,51.13
2022-11-05T21:55:39.786Z,47.10
2022-11-05T21:58:46.113Z,48.60
2022-11-05T22:01:30.437Z,48.50
2022-11-05T22:04:14.645Z,47.13
2022-11-05T22:06:58.997Z,46.87
2022-11-05T22:09:44.826Z,48.63
2022-11-05T22:12:31.959Z,47.37
2022-11-05T22:15:18.458Z,50.47
2022-11-05T22:18:02.404Z,55.23
2022-11-05T22:20:46.698Z,58.53
2022-11-05T22:23:30.624Z,57.63
2022-11-05T22:26:16.837Z,59.37
2022-11-05T22:29:00.867Z,57.37
2022-11-05T22:31:45.473Z,60.93
2022-11-05T22:34:29.469Z,59.80
2022-11-05T22:37:14.271Z,61.57
2022-11-05T22:39:58.315Z,58.37
2022-11-05T22:42:43.735Z,57.23
2022-11-05T22:45:27.704Z,55.20
2022-11-05T22:48:12.044Z,59.50
2022-11-05T22:50:56.063Z,56.90
2022-11-05T22:53:40.874Z,53.77
2022-11-05T22:56:27.018Z,60.57
2022-11-05T22:59:16.240Z,60.57
2022-11-05T23:02:03.903Z,58.03
2022-11-05T23:04:53.098Z,58.77
2022-11-05T23:07:56.303Z,59.37
2022-11-05T23:10:58.050Z,61.50
2022-11-05T23:13:42.018Z,63.70
2022-11-05T23:16:45.148Z,60.53
2022-11-05T23:19:48.692Z,61.20
2022-11-05T23:22:51.507Z,60.23
2022-11-05T23:25:35.558Z,58.47
2022-11-05T23:28:21.545Z,56.60
2022-11-05T23:31:22.662Z,55.83
2022-11-05T23:34:08.107Z,54.77
2022-11-05T23:37:10.000Z,53.03
2022-11-05T23:39:54.103Z,49.90
2022-11-05T23:42:56.071Z,49.20
2022-11-05T23:45:59.138Z,46.53
2022-11-05T23:48:42.902Z,47.57
2022-11-05T23:51:28.274Z,53.20
2022-11-05T23:54:12.221Z,51.97
2022-11-05T23:56:56.064Z,52.47
2022-11-05T23:59:39.861Z,47.87
